createdAt,value
2022-10-18T00:01:59.731Z,101181.03
2022-10-18T00:05:03.701Z,101171.31
2022-10-18T00:08:06.444Z,101177.09
2022-10-18T00:11:09.536Z,101175.16
2022-10-18T00:14:12.282Z,101173.28
2022-10-18T00:17:15.236Z,101172.09
2022-10-18T00:20:18.013Z,101177.13
2022-10-18T00:23:21.084Z,101168.69
2022-10-18T00:26:26.326Z,101160.50
2022-10-18T00:29:29.326Z,101164.62
2022-10-18T00:32:40.201Z,101164.91
2022-10-18T00:35:43.347Z,101163.47
2022-10-18T00:38:46.799Z,101161.38
2022-10-18T00:41:50.902Z,101150.25
2022-10-18T00:45:21.378Z,101148.34
2022-10-18T00:48:24.782Z,101147.31
2022-10-18T00:51:31.243Z,101156.63
2022-10-18T00:54:37.308Z,101149.34
2022-10-18T00:57:42.345Z,101143.88
2022-10-18T01:00:45.531Z,101147.03
2022-10-18T01:03:48.687Z,101140.81
2022-10-18T01:07:01.703Z,101137.59
2022-10-18T01:10:10.546Z,101137.34
2022-10-18T01:13:25.595Z,101141.94
2022-10-18T01:16:44.719Z,101141.56
2022-10-18T01:20:03.821Z,101139.66
2022-10-18T01:23:57.576Z,101138.50
2022-10-18T01:27:12.791Z,101137.22
2022-10-18T01:30:33.610Z,101134.22
2022-10-18T01:33:45.633Z,101130.34
2022-10-18T01:36:51.071Z,101129.41
2022-10-18T01:39:55.836Z,101133.19
2022-10-18T01:42:58.579Z,101118.53
2022-10-18T01:46:02.174Z,101112.84
2022-10-18T01:49:05.329Z,101112.66
2022-10-18T01:52:13.298Z,101112.34
2022-10-18T01:55:16.270Z,101117.09
2022-10-18T01:58:44.801Z,101107.78
2022-10-18T02:02:06.971Z,101097.97
2022-10-18T02:05:09.896Z,101093.12
2022-10-18T02:08:24.880Z,101096.56
2022-10-18T02:11:29.859Z,101091.47
2022-10-18T02:14:33.361Z,101091.72
2022-10-18T02:17:37.754Z,101096.72
2022-10-18T02:20:40.481Z,101091.72
2022-10-18T02:23:45.757Z,101089.88
2022-10-18T02:26:48.489Z,101088.41
2022-10-18T02:29:52.171Z,101087.78
2022-10-18T02:33:03.622Z,101096.75
2022-10-18T02:36:13.925Z,101099.03
2022-10-18T02:39:19.648Z,101092.97
2022-10-18T02:42:22.663Z,101096.91
2022-10-18T02:45:26.278Z,101098.50
2022-10-18T02:48:29.323Z,101104.03
2022-10-18T02:51:32.189Z,101102.34
2022-10-18T02:54:35.195Z,101104.25
2022-10-18T02:57:37.935Z,101098.50
2022-10-18T03:00:40.910Z,101105.41
2022-10-18T03:03:43.628Z,101100.44
2022-10-18T03:06:47.919Z,101108.56
2022-10-18T03:09:50.677Z,101110.59
2022-10-18T03:12:54.680Z,101108.59
2022-10-18T03:15:57.423Z,101104.56
2022-10-18T03:19:00.436Z,101108.06
2022-10-18T03:22:03.184Z,101104.56
2022-10-18T03:25:06.354Z,101110.22
2022-10-18T03:28:09.126Z,101106.72
2022-10-18T03:31:12.119Z,101110.12
2022-10-18T03:34:15.906Z,101117.38
2022-10-18T03:37:18.962Z,101108.69
2022-10-18T03:40:21.853Z,101113.34
2022-10-18T03:43:25.128Z,101118.53
2022-10-18T03:46:27.991Z,101124.87
2022-10-18T03:52:34.739Z,101117.34
2022-10-18T03:55:38.271Z,101118.72
2022-10-18T03:58:41.126Z,101119.91
2022-10-18T04:01:44.556Z,101121.28
2022-10-18T04:04:47.761Z,101127.84
2022-10-18T04:07:50.862Z,101115.50
2022-10-18T04:10:53.948Z,101117.31
2022-10-18T04:13:56.809Z,101116.75
2022-10-18T04:16:59.809Z,101117.66
2022-10-18T04:20:02.530Z,101107.47
2022-10-18T04:23:06.723Z,101107.59
2022-10-18T04:26:09.545Z,101107.59
2022-10-18T04:29:13.609Z,101104.66
2022-10-18T04:32:16.314Z,101103.31
2022-10-18T04:35:22.706Z,101088.59
2022-10-18T04:38:25.434Z,101096.31
2022-10-18T04:41:28.389Z,101085.88
2022-10-18T04:44:30.951Z,101087.47
2022-10-18T04:47:34.289Z,101092.00
2022-10-18T04:50:37.219Z,101092.44
2022-10-18T04:53:43.118Z,101091.31
2022-10-18T04:56:45.820Z,101090.53
2022-10-18T04:59:48.851Z,101086.47
2022-10-18T05:02:58.987Z,101075.72
2022-10-18T05:06:03.136Z,101081.59
2022-10-18T05:09:06.293Z,101074.25
2022-10-18T05:12:09.605Z,101078.69
2022-10-18T05:15:12.345Z,101086.69
2022-10-18T05:18:15.463Z,101083.75
2022-10-18T05:21:18.538Z,101081.03
2022-10-18T05:24:24.142Z,101083.84
2022-10-18T05:27:30.155Z,101076.28
2022-10-18T05:30:33.331Z,101072.31
2022-10-18T05:33:36.427Z,101062.38
2022-10-18T05:36:39.408Z,101070.75
2022-10-18T05:39:42.249Z,101073.22
2022-10-18T05:42:45.280Z,101076.97
2022-10-18T05:45:49.431Z,101074.03
2022-10-18T05:48:52.409Z,101073.12
2022-10-18T05:51:55.181Z,101078.78
2022-10-18T05:54:58.208Z,101076.41
2022-10-18T05:58:00.948Z,101074.03
2022-10-18T06:01:05.607Z,101075.28
2022-10-18T06:04:10.871Z,101080.56
2022-10-18T06:07:13.822Z,101091.69
2022-10-18T06:10:18.108Z,101087.72
2022-10-18T06:13:20.870Z,101092.13
2022-10-18T06:16:28.546Z,101095.84
2022-10-18T06:19:34.663Z,101094.81
2022-10-18T06:22:37.687Z,101089.41
2022-10-18T06:25:40.376Z,101087.56
2022-10-18T06:28:43.471Z,101098.84
2022-10-18T06:31:46.323Z,101102.34
2022-10-18T06:34:49.300Z,101104.47
2022-10-18T06:37:52.177Z,101096.41
2022-10-18T06:40:57.739Z,101100.31
2022-10-18T06:44:04.007Z,101103.16
2022-10-18T06:47:08.169Z,101101.63
2022-10-18T06:50:11.769Z,101099.84
2022-10-18T06:53:14.756Z,101106.47
2022-10-18T06:56:17.470Z,101099.34
2022-10-18T06:59:21.639Z,101099.28
2022-10-18T07:02:24.394Z,101107.38
2022-10-18T07:05:28.475Z,101109.31
2022-10-18T07:08:31.653Z,101110.91
2022-10-18T07:11:34.807Z,101107.56
2022-10-18T07:14:37.548Z,101115.28
2022-10-18T07:17:40.591Z,101109.56
2022-10-18T07:20:43.355Z,101107.78
2022-10-18T07:23:47.265Z,101103.94
2022-10-18T07:26:50.392Z,101110.44
2022-10-18T07:29:53.444Z,101107.13
2022-10-18T07:32:56.464Z,101099.22
2022-10-18T07:36:04.871Z,101103.66
2022-10-18T07:39:07.912Z,101103.72
2022-10-18T07:42:10.934Z,101101.69
2022-10-18T07:45:14.777Z,101100.84
2022-10-18T07:48:18.008Z,101098.88
2022-10-18T07:51:22.241Z,101093.66
2022-10-18T07:54:25.234Z,101087.66
2022-10-18T07:57:28.018Z,101084.53
2022-10-18T08:00:31.079Z,101081.69
2022-10-18T08:03:34.840Z,101082.78
2022-10-18T08:06:37.557Z,101083.19
2022-10-18T08:09:40.633Z,101075.66
2022-10-18T08:12:43.422Z,101069.53
2022-10-18T08:15:46.588Z,101065.94
2022-10-18T08:18:49.467Z,101064.53
2022-10-18T08:21:52.507Z,101058.00
2022-10-18T08:24:55.200Z,101059.22
2022-10-18T08:27:58.849Z,101056.75
2022-10-18T08:31:06.039Z,101057.03
2022-10-18T08:34:09.949Z,101044.69
2022-10-18T08:37:12.684Z,101040.13
2022-10-18T08:40:16.107Z,101041.88
2022-10-18T08:43:29.194Z,101035.31
2022-10-18T08:46:36.385Z,101037.50
2022-10-18T08:49:45.632Z,101027.78
2022-10-18T08:53:20.185Z,101018.06
2022-10-18T08:56:24.593Z,101017.31
2022-10-18T08:59:34.407Z,101017.75
2022-10-18T09:02:46.459Z,101019.72
2022-10-18T09:05:55.611Z,100999.03
2022-10-18T09:09:13.583Z,101005.31
2022-10-18T09:12:42.939Z,101004.22
2022-10-18T09:15:59.918Z,101002.31
2022-10-18T09:19:11.810Z,100991.78
2022-10-18T09:22:18.648Z,100982.00
2022-10-18T09:25:37.885Z,100976.91
2022-10-18T09:28:53.288Z,100983.59
2022-10-18T09:31:58.957Z,100970.28
2022-10-18T09:35:21.153Z,100979.63
2022-10-18T09:38:28.329Z,100976.91
2022-10-18T09:41:52.269Z,100976.47
2022-10-18T09:44:59.947Z,100960.78
2022-10-18T09:48:29.548Z,100956.03
2022-10-18T09:51:37.784Z,100967.78
2022-10-18T09:54:44.428Z,100954.75
2022-10-18T09:57:51.350Z,100959.41
2022-10-18T10:00:55.600Z,100956.63
2022-10-18T10:03:58.716Z,100959.00
2022-10-18T10:07:02.827Z,100955.41
2022-10-18T10:10:11.232Z,100955.41
2022-10-18T10:13:23.188Z,100952.66
2022-10-18T10:16:27.172Z,100953.41
2022-10-18T10:19:37.592Z,100949.88
2022-10-18T10:22:42.050Z,100951.31
2022-10-18T10:25:51.807Z,100949.75
2022-10-18T10:28:55.152Z,100943.03
2022-10-18T10:32:04.655Z,100941.03
2022-10-18T10:35:33.957Z,100925.66
2022-10-18T10:38:44.590Z,100925.09
2022-10-18T10:42:00.109Z,100922.22
2022-10-18T10:45:02.883Z,100926.00
2022-10-18T10:48:14.923Z,100916.25
2022-10-18T10:51:29.562Z,100906.31
2022-10-18T10:54:47.550Z,100908.56
2022-10-18T10:57:54.247Z,100894.53
2022-10-18T11:00:58.080Z,100901.25
2022-10-18T11:04:22.187Z,100885.78
2022-10-18T11:07:30.450Z,100891.81
2022-10-18T11:10:35.204Z,100878.53
2022-10-18T11:13:50.037Z,100874.50
2022-10-18T11:17:07.738Z,100871.84
2022-10-18T11:20:38.370Z,100870.84
2022-10-18T11:23:42.813Z,100872.22
2022-10-18T11:26:54.661Z,100855.69
2022-10-18T11:30:13.770Z,100848.09
2022-10-18T11:33:56.220Z,100845.97
2022-10-18T11:37:27.182Z,100843.97
2022-10-18T11:40:49.981Z,100838.00
2022-10-18T11:44:03.570Z,100839.84
2022-10-18T11:47:52.274Z,100838.69
2022-10-18T11:51:04.570Z,100817.75
2022-10-18T11:54:26.996Z,100818.19
2022-10-18T11:57:37.953Z,100818.41
2022-10-18T12:00:45.980Z,100821.66
2022-10-18T12:04:09.127Z,100809.94
2022-10-18T12:07:14.208Z,100801.88
2022-10-18T12:10:26.318Z,100799.28
2022-10-18T12:13:47.051Z,100792.38
2022-10-18T12:16:52.365Z,100785.53
2022-10-18T12:20:04.861Z,100791.75
2022-10-18T12:23:35.268Z,100782.53
2022-10-18T12:26:38.183Z,100776.78
2022-10-18T12:30:03.508Z,100772.00
2022-10-18T12:33:27.191Z,100772.28
2022-10-18T12:36:43.919Z,100770.31
2022-10-18T12:40:10.251Z,100762.25
2022-10-18T12:43:36.981Z,100770.00
2022-10-18T12:46:57.625Z,100760.50
2022-10-18T12:50:06.855Z,100758.22
2022-10-18T12:53:09.571Z,100755.50
2022-10-18T12:56:27.966Z,100748.09
2022-10-18T12:59:30.623Z,100741.22
2022-10-18T13:02:33.977Z,100731.66
2022-10-18T13:05:54.673Z,100732.81
2022-10-18T13:09:17.189Z,100733.09
2022-10-18T13:12:19.817Z,100730.12
2022-10-18T13:15:46.328Z,100732.22
2022-10-18T13:18:58.957Z,100725.69
2022-10-18T13:22:15.297Z,100729.41
2022-10-18T13:25:23.701Z,100727.44
2022-10-18T13:28:39.789Z,100716.62
2022-10-18T13:31:48.810Z,100724.22
2022-10-18T13:34:51.879Z,100720.88
2022-10-18T13:37:59.915Z,100714.28
2022-10-18T13:41:12.850Z,100715.28
2022-10-18T13:44:28.842Z,100710.72
2022-10-18T13:47:37.157Z,100708.75
2022-10-18T13:50:42.128Z,100703.38
2022-10-18T13:54:01.120Z,100702.09
2022-10-18T13:57:32.252Z,100705.09
2022-10-18T14:00:58.763Z,100699.28
2022-10-18T14:04:20.579Z,100695.53
2022-10-18T14:07:25.756Z,100689.06
2022-10-18T14:10:57.262Z,100685.22
2022-10-18T14:14:23.238Z,100680.97
2022-10-18T14:17:35.948Z,100685.16
2022-10-18T14:21:12.175Z,100682.22
2022-10-18T14:24:21.115Z,100670.06
2022-10-18T14:27:26.671Z,100671.94
2022-10-18T14:30:29.681Z,100667.78
2022-10-18T14:33:36.225Z,100652.16
2022-10-18T14:36:43.638Z,100653.06
2022-10-18T14:39:46.771Z,100648.22
2022-10-18T14:42:50.728Z,100640.94
2022-10-18T14:45:53.543Z,100638.62
2022-10-18T14:48:58.950Z,100645.22
2022-10-18T14:52:01.842Z,100647.91
2022-10-18T14:55:05.295Z,100638.13
2022-10-18T14:58:14.510Z,100633.13
2022-10-18T15:01:18.753Z,100634.25
2022-10-18T15:04:27.704Z,100631.41
2022-10-18T15:07:32.610Z,100630.50
2022-10-18T15:10:35.511Z,100626.28
2022-10-18T15:13:46.598Z,100635.69
2022-10-18T15:16:50.738Z,100631.69
2022-10-18T15:20:01.808Z,100623.66
2022-10-18T15:23:32.646Z,100622.56
2022-10-18T15:26:35.656Z,100629.87
2022-10-18T15:29:38.414Z,100617.78
2022-10-18T15:33:09.878Z,100613.78
2022-10-18T15:36:24.992Z,100617.94
2022-10-18T15:39:32.296Z,100612.38
2022-10-18T15:42:37.428Z,100607.47
2022-10-18T15:45:49.139Z,100604.53
2022-10-18T15:48:51.843Z,100607.69
2022-10-18T15:52:15.840Z,100610.28
2022-10-18T15:55:30.706Z,100606.47
2022-10-18T15:58:39.172Z,100611.31
2022-10-18T16:01:43.858Z,100608.38
2022-10-18T16:04:47.839Z,100604.09
2022-10-18T16:07:53.656Z,100597.13
2022-10-18T16:10:58.903Z,100592.13
2022-10-18T16:14:01.791Z,100586.69
2022-10-18T16:17:06.410Z,100590.72
2022-10-18T16:20:19.530Z,100594.34
2022-10-18T16:23:26.270Z,100601.94
2022-10-18T16:26:29.551Z,100604.72
2022-10-18T16:29:35.424Z,100597.28
2022-10-18T16:32:38.204Z,100608.69
2022-10-18T16:35:41.264Z,100607.94
2022-10-18T16:38:44.347Z,100618.50
2022-10-18T16:41:51.787Z,100613.84
2022-10-18T16:44:55.143Z,100604.06
2022-10-18T16:47:58.389Z,100604.91
2022-10-18T16:51:01.415Z,100600.19
2022-10-18T16:54:05.555Z,100597.88
2022-10-18T16:57:11.915Z,100607.66
2022-10-18T17:00:22.172Z,100601.78
2022-10-18T17:03:25.810Z,100598.66
2022-10-18T17:06:30.445Z,100589.28
2022-10-18T17:09:35.501Z,100586.53
2022-10-18T17:12:38.910Z,100584.19
2022-10-18T17:15:45.000Z,100592.41
2022-10-18T17:18:48.812Z,100586.94
2022-10-18T17:21:51.853Z,100595.53
2022-10-18T17:24:55.202Z,100605.59
2022-10-18T17:27:58.445Z,100602.19
2022-10-18T17:31:03.169Z,100606.06
2022-10-18T17:34:06.892Z,100604.88
2022-10-18T17:37:10.321Z,100601.34
2022-10-18T17:40:13.938Z,100600.97
2022-10-18T17:43:17.559Z,100598.59
2022-10-18T17:46:21.507Z,100602.13
2022-10-18T17:49:24.991Z,100607.59
2022-10-18T17:52:27.985Z,100607.59
2022-10-18T17:55:31.701Z,100609.53
2022-10-18T17:58:35.720Z,100605.97
2022-10-18T18:01:39.571Z,100608.25
2022-10-18T18:04:43.065Z,100599.28
2022-10-18T18:07:46.980Z,100600.09
2022-10-18T18:10:54.967Z,100597.00
2022-10-18T18:13:58.790Z,100586.84
2022-10-18T18:17:02.574Z,100577.09
2022-10-18T18:20:06.541Z,100578.25
2022-10-18T18:23:10.704Z,100577.47
2022-10-18T18:26:14.812Z,100579.81
2022-10-18T18:29:23.559Z,100571.59
2022-10-18T18:32:27.309Z,100571.56
2022-10-18T18:35:31.114Z,100573.84
2022-10-18T18:38:35.929Z,100569.50
2022-10-18T18:41:39.932Z,100569.09
2022-10-18T18:44:46.311Z,100561.16
2022-10-18T18:47:51.138Z,100558.00
2022-10-18T18:50:54.584Z,100547.06
2022-10-18T18:53:58.259Z,100547.88
2022-10-18T18:57:05.650Z,100545.91
2022-10-18T19:00:10.588Z,100550.22
2022-10-18T19:03:16.031Z,100551.34
2022-10-18T19:06:40.945Z,100561.78
2022-10-18T19:09:48.703Z,100564.03
2022-10-18T19:12:52.207Z,100558.56
2022-10-18T19:16:38.214Z,100567.13
2022-10-18T19:19:41.686Z,100563.13
2022-10-18T19:22:46.090Z,100564.94
2022-10-18T19:25:49.798Z,100554.75
2022-10-18T19:28:53.608Z,100543.47
2022-10-18T19:31:59.725Z,100539.72
2022-10-18T19:35:03.047Z,100546.78
2022-10-18T19:38:06.620Z,100533.19
2022-10-18T19:41:09.955Z,100514.13
2022-10-18T19:44:13.948Z,100518.44
2022-10-18T19:47:17.281Z,100530.78
2022-10-18T19:50:20.918Z,100530.84
2022-10-18T19:53:25.144Z,100541.44
2022-10-18T19:56:31.013Z,100537.50
2022-10-18T19:59:36.138Z,100544.03
2022-10-18T20:02:39.322Z,100556.06
2022-10-18T20:05:42.704Z,100541.53
2022-10-18T20:08:45.495Z,100537.19
2022-10-18T20:11:49.798Z,100530.91
2022-10-18T20:14:52.786Z,100536.97
2022-10-18T20:17:56.863Z,100530.72
2022-10-18T20:21:00.024Z,100514.00
2022-10-18T20:24:06.686Z,100515.63
2022-10-18T20:27:09.621Z,100521.13
2022-10-18T20:30:12.668Z,100522.72
2022-10-18T20:33:15.714Z,100519.19
2022-10-18T20:36:20.551Z,100512.97
2022-10-18T20:39:23.967Z,100519.97
2022-10-18T20:42:27.040Z,100516.00
2022-10-18T20:45:29.742Z,100515.94
2022-10-18T20:48:33.704Z,100518.50
2022-10-18T20:51:36.526Z,100518.75
2022-10-18T20:54:39.829Z,100519.13
2022-10-18T20:57:43.177Z,100512.06
2022-10-18T21:00:46.406Z,100512.31
2022-10-18T21:03:50.381Z,100509.56
2022-10-18T21:06:53.461Z,100505.19
2022-10-18T21:09:56.342Z,100495.81
2022-10-18T21:12:59.348Z,100493.22
2022-10-18T21:16:03.262Z,100483.19
2022-10-18T21:19:08.694Z,100485.59
2022-10-18T21:22:11.500Z,100468.22
2022-10-18T21:25:14.620Z,100469.00
2022-10-18T21:28:17.443Z,100470.03
2022-10-18T21:31:23.019Z,100468.88
2022-10-18T21:34:26.443Z,100473.53
2022-10-18T21:37:29.803Z,100475.59
2022-10-18T21:40:35.515Z,100474.78
2022-10-18T21:43:44.325Z,100483.72
2022-10-18T21:46:47.133Z,100484.25
2022-10-18T21:49:50.152Z,100485.34
2022-10-18T21:52:53.128Z,100484.84
2022-10-18T21:55:56.113Z,100478.56
2022-10-18T21:58:59.536Z,100475.91
2022-10-18T22:02:03.094Z,100473.88
2022-10-18T22:05:08.377Z,100461.28
2022-10-18T22:08:13.996Z,100463.69
2022-10-18T22:11:18.800Z,100455.59
2022-10-18T22:14:22.014Z,100461.75
2022-10-18T22:17:25.078Z,100460.25
2022-10-18T22:20:28.111Z,100458.03
2022-10-18T22:23:42.725Z,100456.12
2022-10-18T22:26:46.181Z,100467.78
2022-10-18T22:29:49.288Z,100468.44
2022-10-18T22:32:52.053Z,100466.72
2022-10-18T22:35:55.104Z,100483.38
2022-10-18T22:38:57.903Z,100484.56
2022-10-18T22:42:00.924Z,100481.00
2022-10-18T22:45:03.906Z,100476.25
2022-10-18T22:48:08.239Z,100474.13
2022-10-18T22:51:11.900Z,100464.84
2022-10-18T22:54:15.195Z,100462.75
2022-10-18T22:57:17.917Z,100459.97
2022-10-18T23:00:20.910Z,100458.06
2022-10-18T23:03:23.660Z,100469.19
2022-10-18T23:06:32.204Z,100474.37
2022-10-18T23:09:35.036Z,100465.44
2022-10-18T23:12:38.080Z,100465.78
2022-10-18T23:15:40.833Z,100466.06
2022-10-18T23:18:43.959Z,100466.81
2022-10-18T23:21:46.810Z,100462.78
2022-10-18T23:24:49.928Z,100468.09
2022-10-18T23:27:52.690Z,100469.50
2022-10-18T23:30:56.113Z,100459.75
2022-10-18T23:34:03.470Z,100456.88
2022-10-18T23:37:07.335Z,100452.66
2022-10-18T23:40:10.446Z,100451.88
2022-10-18T23:43:14.239Z,100446.87
2022-10-18T23:46:17.819Z,100440.72
2022-10-18T23:49:20.851Z,100433.41
2022-10-18T23:52:24.922Z,100426.53
2022-10-18T23:55:27.926Z,100416.16
2022-10-18T23:58:31.902Z,100413.03
